sensor_id;sensor_type;location;lat;lon;timestamp;temperature;humidity
14182;DHT22;7171;50.936;6.764;2023-03-04T00:00:53;4.40;99.90
14182;DHT22;7171;50.936;6.764;2023-03-04T00:03:21;4.40;99.90
14182;DHT22;7171;50.936;6.764;2023-03-04T00:05:47;4.40;99.90
14182;DHT22;7171;50.936;6.764;2023-03-04T00:08:14;4.40;99.90
14182;DHT22;7171;50.936;6.764;2023-03-04T00:10:41;4.40;99.90
14182;DHT22;7171;50.936;6.764;2023-03-04T00:13:07;4.40;99.90
14182;DHT22;7171;50.936;6.764;2023-03-04T00:15:34;4.40;99.90
14182;DHT22;7171;50.936;6.764;2023-03-04T00:18:01;4.10;99.90
14182;DHT22;7171;50.936;6.764;2023-03-04T00:20:29;4.40;99.90
14182;DHT22;7171;50.936;6.764;2023-03-04T00:22:56;4.40;99.90
14182;DHT22;7171;50.936;6.764;2023-03-04T00:25:23;4.40;99.90
14182;DHT22;7171;50.936;6.764;2023-03-04T00:27:49;4.40;99.90
14182;DHT22;7171;50.936;6.764;2023-03-04T00:30:16;4.50;99.90
14182;DHT22;7171;50.936;6.764;2023-03-04T00:32:43;4.50;99.90
14182;DHT22;7171;50.936;6.764;2023-03-04T00:35:10;4.50;99.90
14182;DHT22;7171;50.936;6.764;2023-03-04T00:37:38;4.50;99.90
14182;DHT22;7171;50.936;6.764;2023-03-04T00:40:05;4.60;99.90
14182;DHT22;7171;50.936;6.764;2023-03-04T00:42:33;4.60;99.90
14182;DHT22;7171;50.936;6.764;2023-03-04T00:45:00;4.60;99.90
14182;DHT22;7171;50.936;6.764;2023-03-04T03:05:39;5.10;99.90
14182;DHT22;7171;50.936;6.764;2023-03-04T03:08:06;5.10;99.90
14182;DHT22;7171;50.936;6.764;2023-03-04T03:10:33;5.00;99.90
14182;DHT22;7171;50.936;6.764;2023-03-04T03:13:00;5.00;99.90
14182;DHT22;7171;50.936;6.764;2023-03-04T03:15:26;5.00;99.90
14182;DHT22;7171;50.936;6.764;2023-03-04T03:17:55;5.00;99.90
14182;DHT22;7171;50.936;6.764;2023-03-04T03:20:22;5.00;99.90
14182;DHT22;7171;50.936;6.764;2023-03-04T03:22:48;5.00;99.90
14182;DHT22;7171;50.936;6.764;2023-03-04T03:25:15;5.00;99.90
14182;DHT22;7171;50.936;6.764;2023-03-04T03:27:42;5.00;99.90
14182;DHT22;7171;50.936;6.764;2023-03-04T03:30:11;5.00;99.90
14182;DHT22;7171;50.936;6.764;2023-03-04T03:32:38;5.00;99.90
14182;DHT22;7171;50.936;6.764;2023-03-04T03:35:08;5.00;99.90
14182;DHT22;7171;50.936;6.764;2023-03-04T03:37:35;5.00;99.90
14182;DHT22;7171;50.936;6.764;2023-03-04T03:40:02;5.00;99.90
14182;DHT22;7171;50.936;6.764;2023-03-04T03:42:28;5.00;99.90
14182;DHT22;7171;50.936;6.764;2023-03-04T03:44:55;5.00;99.90
14182;DHT22;7171;50.936;6.764;2023-03-04T03:47:23;5.00;99.90
14182;DHT22;7171;50.936;6.764;2023-03-04T03:49:49;5.00;99.90
14182;DHT22;7171;50.936;6.764;2023-03-04T03:52:17;5.00;99.90
14182;DHT22;7171;50.936;6.764;2023-03-04T03:54:44;5.00;99.90
14182;DHT22;7171;50.936;6.764;2023-03-04T03:57:11;5.00;99.90
14182;DHT22;7171;50.936;6.764;2023-03-04T03:59:38;3.90;99.90
14182;DHT22;7171;50.936;6.764;2023-03-04T04:02:04;4.90;99.90
14182;DHT22;7171;50.936;6.764;2023-03-04T04:04:31;4.90;99.90
14182;DHT22;7171;50.936;6.764;2023-03-04T04:06:58;4.90;99.90
14182;DHT22;7171;50.936;6.764;2023-03-04T04:09:26;4.90;99.90
14182;DHT22;7171;50.936;6.764;2023-03-04T04:11:53;4.90;99.90
14182;DHT22;7171;50.936;6.764;2023-03-04T04:14:20;4.90;99.90
14182;DHT22;7171;50.936;6.764;2023-03-04T04:16:46;4.90;99.90
14182;DHT22;7171;50.936;6.764;2023-03-04T04:19:16;5.00;99.90
14182;DHT22;7171;50.936;6.764;2023-03-04T04:21:44;5.00;99.90
14182;DHT22;7171;50.936;6.764;2023-03-04T04:24:11;5.00;99.90
14182;DHT22;7171;50.936;6.764;2023-03-04T04:26:39;5.00;99.90
14182;DHT22;7171;50.936;6.764;2023-03-04T04:29:06;5.00;99.90
14182;DHT22;7171;50.936;6.764;2023-03-04T04:31:34;5.00;99.90
14182;DHT22;7171;50.936;6.764;2023-03-04T04:34:01;5.10;99.90
14182;DHT22;7171;50.936;6.764;2023-03-04T04:36:27;5.00;99.90
14182;DHT22;7171;50.936;6.764;2023-03-04T04:38:54;5.10;99.90
14182;DHT22;7171;50.936;6.764;2023-03-04T04:41:23;5.10;99.90
14182;DHT22;7171;50.936;6.764;2023-03-04T04:43:52;5.10;99.90
14182;DHT22;7171;50.936;6.764;2023-03-04T04:46:18;5.20;99.90
14182;DHT22;7171;50.936;6.764;2023-03-04T04:48:45;5.20;99.90
14182;DHT22;7171;50.936;6.764;2023-03-04T04:51:12;5.30;99.90
14182;DHT22;7171;50.936;6.764;2023-03-04T04:53:39;5.30;99.90
14182;DHT22;7171;50.936;6.764;2023-03-04T04:56:10;5.40;99.90
14182;DHT22;7171;50.936;6.764;2023-03-04T04:58:37;5.40;99.90
14182;DHT22;7171;50.936;6.764;2023-03-04T05:01:05;5.50;99.90
14182;DHT22;7171;50.936;6.764;2023-03-04T05:03:33;5.50;99.90
14182;DHT22;7171;50.936;6.764;2023-03-04T05:06:00;5.50;99.90
14182;DHT22;7171;50.936;6.764;2023-03-04T05:08:27;5.60;99.90
14182;DHT22;7171;50.936;6.764;2023-03-04T05:10:53;5.60;99.90
14182;DHT22;7171;50.936;6.764;2023-03-04T05:13:20;5.60;99.90
14182;DHT22;7171;50.936;6.764;2023-03-04T05:15:49;5.60;99.90
14182;DHT22;7171;50.936;6.764;2023-03-04T05:18:17;5.70;99.90
14182;DHT22;7171;50.936;6.764;2023-03-04T05:20:44;5.70;99.90
14182;DHT22;7171;50.936;6.764;2023-03-04T05:23:11;5.70;99.90
14182;DHT22;7171;50.936;6.764;2023-03-04T05:25:37;5.70;99.90
14182;DHT22;7171;50.936;6.764;2023-03-04T05:28:04;5.70;99.90
14182;DHT22;7171;50.936;6.764;2023-03-04T05:30:36;5.70;99.90
14182;DHT22;7171;50.936;6.764;2023-03-04T05:33:03;5.70;99.90
14182;DHT22;7171;50.936;6.764;2023-03-04T05:35:31;5.70;99.90
14182;DHT22;7171;50.936;6.764;2023-03-04T05:37:58;5.70;99.90
14182;DHT22;7171;50.936;6.764;2023-03-04T05:40:25;5.70;99.90
14182;DHT22;7171;50.936;6.764;2023-03-04T05:42:51;5.70;99.90
14182;DHT22;7171;50.936;6.764;2023-03-04T05:45:18;5.70;99.90
14182;DHT22;7171;50.936;6.764;2023-03-04T05:47:45;5.80;99.90
14182;DHT22;7171;50.936;6.764;2023-03-04T05:50:11;5.80;99.90
14182;DHT22;7171;50.936;6.764;2023-03-04T05:52:39;5.80;99.90
14182;DHT22;7171;50.936;6.764;2023-03-04T05:55:07;5.80;99.90
14182;DHT22;7171;50.936;6.764;2023-03-04T05:57:34;5.80;99.90
14182;DHT22;7171;50.936;6.764;2023-03-04T06:00:01;5.80;99.90
14182;DHT22;7171;50.936;6.764;2023-03-04T06:02:30;5.80;99.90
14182;DHT22;7171;50.936;6.764;2023-03-04T06:04:56;5.80;99.90
14182;DHT22;7171;50.936;6.764;2023-03-04T06:07:23;5.80;99.90
14182;DHT22;7171;50.936;6.764;2023-03-04T06:09:51;5.90;99.90
14182;DHT22;7171;50.936;6.764;2023-03-04T06:12:18;5.90;99.90
14182;DHT22;7171;50.936;6.764;2023-03-04T06:14:44;5.90;99.90
14182;DHT22;7171;50.936;6.764;2023-03-04T06:17:11;5.90;99.90
14182;DHT22;7171;50.936;6.764;2023-03-04T06:19:38;5.90;99.90
14182;DHT22;7171;50.936;6.764;2023-03-04T06:22:06;5.90;99.90
14182;DHT22;7171;50.936;6.764;2023-03-04T06:24:34;5.90;99.90
14182;DHT22;7171;50.936;6.764;2023-03-04T06:27:02;5.90;99.90
14182;DHT22;7171;50.936;6.764;2023-03-04T06:29:29;5.80;99.90
14182;DHT22;7171;50.936;6.764;2023-03-04T06:31:55;5.80;99.90
14182;DHT22;7171;50.936;6.764;2023-03-04T06:34:22;5.80;99.90
14182;DHT22;7171;50.936;6.764;2023-03-04T06:36:49;5.80;99.90
14182;DHT22;7171;50.936;6.764;2023-03-04T06:39:16;5.70;99.90
14182;DHT22;7171;50.936;6.764;2023-03-04T06:41:42;5.70;99.90
14182;DHT22;7171;50.936;6.764;2023-03-04T06:44:10;5.80;99.90
14182;DHT22;7171;50.936;6.764;2023-03-04T06:46:37;5.80;99.90
14182;DHT22;7171;50.936;6.764;2023-03-04T06:49:04;5.80;99.90
14182;DHT22;7171;50.936;6.764;2023-03-04T06:51:30;5.80;99.90
14182;DHT22;7171;50.936;6.764;2023-03-04T06:53:57;5.80;99.90
14182;DHT22;7171;50.936;6.764;2023-03-04T06:56:24;5.80;99.90
14182;DHT22;7171;50.936;6.764;2023-03-04T06:58:50;5.80;99.90
14182;DHT22;7171;50.936;6.764;2023-03-04T07:01:20;5.80;99.90
14182;DHT22;7171;50.936;6.764;2023-03-04T07:03:49;5.80;99.90
14182;DHT22;7171;50.936;6.764;2023-03-04T07:06:18;5.80;99.90
14182;DHT22;7171;50.936;6.764;2023-03-04T07:08:45;5.80;99.90
14182;DHT22;7171;50.936;6.764;2023-03-04T07:11:13;5.80;99.90
14182;DHT22;7171;50.936;6.764;2023-03-04T07:13:39;5.80;99.90
14182;DHT22;7171;50.936;6.764;2023-03-04T07:16:08;5.90;99.90
14182;DHT22;7171;50.936;6.764;2023-03-04T07:18:37;5.90;99.90
14182;DHT22;7171;50.936;6.764;2023-03-04T07:21:05;5.90;99.90
14182;DHT22;7171;50.936;6.764;2023-03-04T07:23:32;5.90;99.90
14182;DHT22;7171;50.936;6.764;2023-03-04T07:25:59;5.90;99.90
14182;DHT22;7171;50.936;6.764;2023-03-04T07:28:26;5.90;99.90
14182;DHT22;7171;50.936;6.764;2023-03-04T07:30:52;5.90;99.90
14182;DHT22;7171;50.936;6.764;2023-03-04T07:33:19;5.90;99.90
14182;DHT22;7171;50.936;6.764;2023-03-04T07:35:47;5.90;99.90
14182;DHT22;7171;50.936;6.764;2023-03-04T07:38:14;5.90;99.90
14182;DHT22;7171;50.936;6.764;2023-03-04T07:40:40;5.90;99.90
14182;DHT22;7171;50.936;6.764;2023-03-04T07:43:09;6.00;99.90
14182;DHT22;7171;50.936;6.764;2023-03-04T07:45:37;6.00;99.90
14182;DHT22;7171;50.936;6.764;2023-03-04T07:48:04;6.10;99.90
14182;DHT22;7171;50.936;6.764;2023-03-04T07:50:30;5.90;99.90
14182;DHT22;7171;50.936;6.764;2023-03-04T07:52:58;6.00;99.90
14182;DHT22;7171;50.936;6.764;2023-03-04T07:55:25;6.00;99.90
14182;DHT22;7171;50.936;6.764;2023-03-04T07:57:55;6.00;99.90
14182;DHT22;7171;50.936;6.764;2023-03-04T08:00:22;6.00;99.90
14182;DHT22;7171;50.936;6.764;2023-03-04T08:02:49;6.10;99.90
14182;DHT22;7171;50.936;6.764;2023-03-04T08:05:15;6.10;99.90
14182;DHT22;7171;50.936;6.764;2023-03-04T08:07:42;6.10;99.90
14182;DHT22;7171;50.936;6.764;2023-03-04T08:10:10;6.10;99.90
14182;DHT22;7171;50.936;6.764;2023-03-04T08:12:37;6.20;99.90
14182;DHT22;7171;50.936;6.764;2023-03-04T08:15:05;6.20;99.90
14182;DHT22;7171;50.936;6.764;2023-03-04T08:17:32;6.20;99.90
14182;DHT22;7171;50.936;6.764;2023-03-04T08:19:58;6.20;99.90
14182;DHT22;7171;50.936;6.764;2023-03-04T08:22:25;6.20;99.90
14182;DHT22;7171;50.936;6.764;2023-03-04T08:24:52;6.20;99.90
14182;DHT22;7171;50.936;6.764;2023-03-04T08:27:20;6.20;99.90
14182;DHT22;7171;50.936;6.764;2023-03-04T08:29:46;6.20;99.90
14182;DHT22;7171;50.936;6.764;2023-03-04T08:32:13;6.20;99.90
14182;DHT22;7171;50.936;6.764;2023-03-04T08:34:40;6.20;99.90
14182;DHT22;7171;50.936;6.764;2023-03-04T08:37:06;6.20;99.90
14182;DHT22;7171;50.936;6.764;2023-03-04T08:39:33;6.20;99.90
14182;DHT22;7171;50.936;6.764;2023-03-04T08:42:01;6.20;99.90
14182;DHT22;7171;50.936;6.764;2023-03-04T08:44:29;6.20;99.90
14182;DHT22;7171;50.936;6.764;2023-03-04T08:46:55;6.20;99.90
14182;DHT22;7171;50.936;6.764;2023-03-04T08:49:22;6.20;99.90
14182;DHT22;7171;50.936;6.764;2023-03-04T08:51:49;6.20;99.90
14182;DHT22;7171;50.936;6.764;2023-03-04T08:54:15;6.20;99.90
14182;DHT22;7171;50.936;6.764;2023-03-04T08:56:42;6.20;99.90
14182;DHT22;7171;50.936;6.764;2023-03-04T08:59:09;6.30;99.90
14182;DHT22;7171;50.936;6.764;2023-03-04T09:01:37;6.30;99.90
14182;DHT22;7171;50.936;6.764;2023-03-04T09:04:04;6.30;99.90
14182;DHT22;7171;50.936;6.764;2023-03-04T09:06:31;6.30;99.90
14182;DHT22;7171;50.936;6.764;2023-03-04T09:08:57;6.30;99.90
14182;DHT22;7171;50.936;6.764;2023-03-04T09:11:24;6.30;99.90
14182;DHT22;7171;50.936;6.764;2023-03-04T09:13:51;6.40;99.90
14182;DHT22;7171;50.936;6.764;2023-03-04T09:16:17;6.40;99.90
14182;DHT22;7171;50.936;6.764;2023-03-04T09:18:46;6.40;99.90
14182;DHT22;7171;50.936;6.764;2023-03-04T09:21:12;6.40;99.90
14182;DHT22;7171;50.936;6.764;2023-03-04T09:23:39;6.50;99.90
14182;DHT22;7171;50.936;6.764;2023-03-04T09:26:14;6.50;99.90
14182;DHT22;7171;50.936;6.764;2023-03-04T09:28:40;6.50;99.90
14182;DHT22;7171;50.936;6.764;2023-03-04T09:31:10;6.60;99.90
14182;DHT22;7171;50.936;6.764;2023-03-04T09:33:37;6.70;99.90
14182;DHT22;7171;50.936;6.764;2023-03-04T09:36:08;6.70;99.90
14182;DHT22;7171;50.936;6.764;2023-03-04T09:38:35;6.80;99.90
14182;DHT22;7171;50.936;6.764;2023-03-04T09:41:06;6.90;99.90
14182;DHT22;7171;50.936;6.764;2023-03-04T09:43:34;7.00;99.90
14182;DHT22;7171;50.936;6.764;2023-03-04T09:46:07;7.00;99.90
14182;DHT22;7171;50.936;6.764;2023-03-04T09:48:39;7.10;99.90
14182;DHT22;7171;50.936;6.764;2023-03-04T09:51:18;7.10;99.90
14182;DHT22;7171;50.936;6.764;2023-03-04T09:53:51;7.20;99.90
14182;DHT22;7171;50.936;6.764;2023-03-04T09:56:20;7.20;99.90
14182;DHT22;7171;50.936;6.764;2023-03-04T09:58:55;7.20;99.90
14182;DHT22;7171;50.936;6.764;2023-03-04T10:01:32;7.20;99.90
14182;DHT22;7171;50.936;6.764;2023-03-04T10:04:04;7.20;99.90
14182;DHT22;7171;50.936;6.764;2023-03-04T10:06:33;7.20;99.90
14182;DHT22;7171;50.936;6.764;2023-03-04T10:09:02;7.10;99.90
14182;DHT22;7171;50.936;6.764;2023-03-04T10:11:33;7.10;99.90
14182;DHT22;7171;50.936;6.764;2023-03-04T10:14:09;7.10;99.90
14182;DHT22;7171;50.936;6.764;2023-03-04T10:16:40;7.20;99.90
14182;DHT22;7171;50.936;6.764;2023-03-04T10:19:23;7.20;99.90
14182;DHT22;7171;50.936;6.764;2023-03-04T10:21:54;7.20;99.90
14182;DHT22;7171;50.936;6.764;2023-03-04T10:24:25;7.20;99.90
14182;DHT22;7171;50.936;6.764;2023-03-04T10:26:54;7.20;99.90
14182;DHT22;7171;50.936;6.764;2023-03-04T10:29:23;7.20;99.90
14182;DHT22;7171;50.936;6.764;2023-03-04T10:31:50;7.20;99.90
14182;DHT22;7171;50.936;6.764;2023-03-04T10:34:20;7.10;99.90
14182;DHT22;7171;50.936;6.764;2023-03-04T10:36:55;7.20;99.90
14182;DHT22;7171;50.936;6.764;2023-03-04T10:39:26;7.20;99.90
14182;DHT22;7171;50.936;6.764;2023-03-04T10:41:55;7.20;99.90
14182;DHT22;7171;50.936;6.764;2023-03-04T10:44:23;7.20;99.90
14182;DHT22;7171;50.936;6.764;2023-03-04T10:46:52;7.20;99.90
14182;DHT22;7171;50.936;6.764;2023-03-04T10:49:20;7.20;99.90
14182;DHT22;7171;50.936;6.764;2023-03-04T10:51:51;7.20;99.90
14182;DHT22;7171;50.936;6.764;2023-03-04T10:54:26;7.20;99.90
14182;DHT22;7171;50.936;6.764;2023-03-04T10:56:58;7.30;99.90
14182;DHT22;7171;50.936;6.764;2023-03-04T10:59:34;7.30;99.90
14182;DHT22;7171;50.936;6.764;2023-03-04T11:02:16;7.40;99.90
14182;DHT22;7171;50.936;6.764;2023-03-04T11:04:50;7.50;99.90
14182;DHT22;7171;50.936;6.764;2023-03-04T11:07:18;7.50;99.90
14182;DHT22;7171;50.936;6.764;2023-03-04T11:09:46;7.60;99.90
14182;DHT22;7171;50.936;6.764;2023-03-04T11:12:15;7.70;99.90
14182;DHT22;7171;50.936;6.764;2023-03-04T11:14:45;7.70;99.90
14182;DHT22;7171;50.936;6.764;2023-03-04T11:17:22;7.70;99.90
14182;DHT22;7171;50.936;6.764;2023-03-04T11:19:54;7.80;99.90
14182;DHT22;7171;50.936;6.764;2023-03-04T11:22:23;7.80;99.90
14182;DHT22;7171;50.936;6.764;2023-03-04T11:24:58;7.80;99.90
14182;DHT22;7171;50.936;6.764;2023-03-04T11:27:35;7.80;99.90
14182;DHT22;7171;50.936;6.764;2023-03-04T11:30:18;7.80;99.90
14182;DHT22;7171;50.936;6.764;2023-03-04T11:32:48;7.90;99.90
14182;DHT22;7171;50.936;6.764;2023-03-04T11:35:23;7.90;99.90
14182;DHT22;7171;50.936;6.764;2023-03-04T11:37:57;7.80;99.90
14182;DHT22;7171;50.936;6.764;2023-03-04T11:40:29;7.80;99.90
14182;DHT22;7171;50.936;6.764;2023-03-04T11:43:02;7.80;99.90
14182;DHT22;7171;50.936;6.764;2023-03-04T11:45:47;7.80;99.90
14182;DHT22;7171;50.936;6.764;2023-03-04T11:48:18;7.80;99.90
14182;DHT22;7171;50.936;6.764;2023-03-04T11:50:53;7.80;99.90
14182;DHT22;7171;50.936;6.764;2023-03-04T11:53:38;7.80;99.90
14182;DHT22;7171;50.936;6.764;2023-03-04T11:56:31;7.80;99.90
14182;DHT22;7171;50.936;6.764;2023-03-04T12:02:15;7.80;99.90
14182;DHT22;7171;50.936;6.764;2023-03-04T12:04:57;7.90;99.90
14182;DHT22;7171;50.936;6.764;2023-03-04T12:07:45;7.90;99.90
14182;DHT22;7171;50.936;6.764;2023-03-04T12:10:21;7.90;99.90
14182;DHT22;7171;50.936;6.764;2023-03-04T12:13:10;8.00;99.90
14182;DHT22;7171;50.936;6.764;2023-03-04T12:15:45;8.00;99.90
14182;DHT22;7171;50.936;6.764;2023-03-04T12:18:24;8.00;99.90
14182;DHT22;7171;50.936;6.764;2023-03-04T12:21:01;8.00;99.90
14182;DHT22;7171;50.936;6.764;2023-03-04T12:23:47;8.00;99.90
14182;DHT22;7171;50.936;6.764;2023-03-04T12:26:27;8.00;99.90
14182;DHT22;7171;50.936;6.764;2023-03-04T12:29:03;8.10;99.90
14182;DHT22;7171;50.936;6.764;2023-03-04T12:31:35;8.20;99.90
14182;DHT22;7171;50.936;6.764;2023-03-04T12:39:52;8.40;99.90
14182;DHT22;7171;50.936;6.764;2023-03-04T12:42:29;8.30;99.90
14182;DHT22;7171;50.936;6.764;2023-03-04T12:45:13;8.40;99.90
14182;DHT22;7171;50.936;6.764;2023-03-04T12:47:47;8.40;99.90
14182;DHT22;7171;50.936;6.764;2023-03-04T12:50:33;8.40;99.90
14182;DHT22;7171;50.936;6.764;2023-03-04T12:53:11;8.40;99.90
14182;DHT22;7171;50.936;6.764;2023-03-04T12:55:42;8.40;99.90
14182;DHT22;7171;50.936;6.764;2023-03-04T12:58:14;8.40;99.90
14182;DHT22;7171;50.936;6.764;2023-03-04T13:00:48;8.40;99.90
14182;DHT22;7171;50.936;6.764;2023-03-04T13:03:22;8.40;99.90
14182;DHT22;7171;50.936;6.764;2023-03-04T13:06:04;8.40;99.90
14182;DHT22;7171;50.936;6.764;2023-03-04T13:08:41;8.40;99.90
14182;DHT22;7171;50.936;6.764;2023-03-04T13:11:39;8.50;99.90
14182;DHT22;7171;50.936;6.764;2023-03-04T13:14:07;8.50;99.90
14182;DHT22;7171;50.936;6.764;2023-03-04T13:16:49;8.50;99.90
14182;DHT22;7171;50.936;6.764;2023-03-04T13:19:43;8.50;99.90
14182;DHT22;7171;50.936;6.764;2023-03-04T13:22:27;8.60;99.90
14182;DHT22;7171;50.936;6.764;2023-03-04T13:24:55;8.60;99.90
14182;DHT22;7171;50.936;6.764;2023-03-04T13:27:44;8.60;99.90
14182;DHT22;7171;50.936;6.764;2023-03-04T13:33:51;8.70;99.90
14182;DHT22;7171;50.936;6.764;2023-03-04T13:36:30;8.70;99.90
14182;DHT22;7171;50.936;6.764;2023-03-04T13:38:58;8.70;99.90
14182;DHT22;7171;50.936;6.764;2023-03-04T13:41:29;8.70;99.90
14182;DHT22;7171;50.936;6.764;2023-03-04T13:43:57;8.70;99.90
14182;DHT22;7171;50.936;6.764;2023-03-04T13:46:40;8.70;99.90
14182;DHT22;7171;50.936;6.764;2023-03-04T13:49:18;8.70;99.90
14182;DHT22;7171;50.936;6.764;2023-03-04T13:51:46;8.70;99.90
14182;DHT22;7171;50.936;6.764;2023-03-04T13:54:15;8.60;99.90
14182;DHT22;7171;50.936;6.764;2023-03-04T13:56:44;8.60;99.90
14182;DHT22;7171;50.936;6.764;2023-03-04T13:59:29;8.60;99.90
14182;DHT22;7171;50.936;6.764;2023-03-04T14:02:00;8.60;99.90
14182;DHT22;7171;50.936;6.764;2023-03-04T14:04:30;8.60;99.90
14182;DHT22;7171;50.936;6.764;2023-03-04T14:06:59;8.60;99.90
14182;DHT22;7171;50.936;6.764;2023-03-04T14:09:27;8.60;99.90
14182;DHT22;7171;50.936;6.764;2023-03-04T14:11:56;8.60;99.90
14182;DHT22;7171;50.936;6.764;2023-03-04T14:14:26;8.50;99.90
14182;DHT22;7171;50.936;6.764;2023-03-04T14:16:56;8.40;99.90
14182;DHT22;7171;50.936;6.764;2023-03-04T14:19:25;8.40;99.90
14182;DHT22;7171;50.936;6.764;2023-03-04T14:21:55;8.40;99.90
14182;DHT22;7171;50.936;6.764;2023-03-04T14:24:23;8.30;99.90
14182;DHT22;7171;50.936;6.764;2023-03-04T14:27:03;8.30;99.90
14182;DHT22;7171;50.936;6.764;2023-03-04T14:29:31;8.30;99.90
14182;DHT22;7171;50.936;6.764;2023-03-04T14:31:59;8.30;99.90
14182;DHT22;7171;50.936;6.764;2023-03-04T14:34:29;8.40;99.90
14182;DHT22;7171;50.936;6.764;2023-03-04T14:36:59;8.40;99.90
14182;DHT22;7171;50.936;6.764;2023-03-04T14:39:28;8.40;99.90
14182;DHT22;7171;50.936;6.764;2023-03-04T14:41:58;8.40;99.90
14182;DHT22;7171;50.936;6.764;2023-03-04T14:44:30;8.40;99.90
14182;DHT22;7171;50.936;6.764;2023-03-04T14:47:07;8.40;99.90
14182;DHT22;7171;50.936;6.764;2023-03-04T14:49:36;8.40;99.90
14182;DHT22;7171;50.936;6.764;2023-03-04T14:52:04;8.40;99.90
14182;DHT22;7171;50.936;6.764;2023-03-04T14:54:34;8.30;99.90
14182;DHT22;7171;50.936;6.764;2023-03-04T14:57:20;8.30;99.90
14182;DHT22;7171;50.936;6.764;2023-03-04T14:59:49;8.30;99.90
14182;DHT22;7171;50.936;6.764;2023-03-04T15:02:24;8.30;99.90
14182;DHT22;7171;50.936;6.764;2023-03-04T15:04:57;8.20;99.90
14182;DHT22;7171;50.936;6.764;2023-03-04T15:07:29;8.10;99.90
14182;DHT22;7171;50.936;6.764;2023-03-04T15:09:57;8.10;99.90
14182;DHT22;7171;50.936;6.764;2023-03-04T15:12:26;8.00;99.90
14182;DHT22;7171;50.936;6.764;2023-03-04T15:14:55;8.00;99.90
14182;DHT22;7171;50.936;6.764;2023-03-04T15:17:25;7.90;99.90
14182;DHT22;7171;50.936;6.764;2023-03-04T15:20:00;7.90;99.90
14182;DHT22;7171;50.936;6.764;2023-03-04T15:22:28;7.90;99.90
14182;DHT22;7171;50.936;6.764;2023-03-04T15:24:58;7.90;99.90
14182;DHT22;7171;50.936;6.764;2023-03-04T15:27:29;7.90;99.90
14182;DHT22;7171;50.936;6.764;2023-03-04T15:29:57;7.90;99.90
14182;DHT22;7171;50.936;6.764;2023-03-04T15:32:27;7.90;99.90
14182;DHT22;7171;50.936;6.764;2023-03-04T15:34:54;7.90;99.90
14182;DHT22;7171;50.936;6.764;2023-03-04T15:37:23;7.90;99.90
14182;DHT22;7171;50.936;6.764;2023-03-04T15:39:52;7.90;99.90
14182;DHT22;7171;50.936;6.764;2023-03-04T15:42:20;7.90;99.90
14182;DHT22;7171;50.936;6.764;2023-03-04T15:44:47;7.90;99.90
14182;DHT22;7171;50.936;6.764;2023-03-04T15:47:13;7.90;99.90
14182;DHT22;7171;50.936;6.764;2023-03-04T15:49:41;7.90;99.90
14182;DHT22;7171;50.936;6.764;2023-03-04T15:52:13;7.90;99.90
14182;DHT22;7171;50.936;6.764;2023-03-04T15:54:41;7.80;99.90
14182;DHT22;7171;50.936;6.764;2023-03-04T15:57:15;7.80;99.90
14182;DHT22;7171;50.936;6.764;2023-03-04T15:59:45;7.80;99.90
14182;DHT22;7171;50.936;6.764;2023-03-04T16:02:16;7.70;99.90
14182;DHT22;7171;50.936;6.764;2023-03-04T16:04:44;7.70;99.90
14182;DHT22;7171;50.936;6.764;2023-03-04T16:07:15;7.60;99.90
14182;DHT22;7171;50.936;6.764;2023-03-04T16:09:43;7.60;99.90
14182;DHT22;7171;50.936;6.764;2023-03-04T16:12:12;7.60;99.90
14182;DHT22;7171;50.936;6.764;2023-03-04T16:14:39;7.60;99.90
14182;DHT22;7171;50.936;6.764;2023-03-04T16:17:08;7.60;99.90
14182;DHT22;7171;50.936;6.764;2023-03-04T16:19:34;7.50;99.90
14182;DHT22;7171;50.936;6.764;2023-03-04T16:22:01;7.60;99.90
14182;DHT22;7171;50.936;6.764;2023-03-04T16:24:31;7.50;99.90
14182;DHT22;7171;50.936;6.764;2023-03-04T16:26:58;7.50;99.90
14182;DHT22;7171;50.936;6.764;2023-03-04T16:29:26;7.50;99.90
14182;DHT22;7171;50.936;6.764;2023-03-04T16:31:54;7.50;99.90
14182;DHT22;7171;50.936;6.764;2023-03-04T16:34:20;7.50;99.90
14182;DHT22;7171;50.936;6.764;2023-03-04T16:36:47;7.50;99.90
14182;DHT22;7171;50.936;6.764;2023-03-04T16:39:18;7.50;99.90
14182;DHT22;7171;50.936;6.764;2023-03-04T16:41:45;7.50;99.90
14182;DHT22;7171;50.936;6.764;2023-03-04T16:44:12;7.50;99.90
14182;DHT22;7171;50.936;6.764;2023-03-04T16:46:40;7.40;99.90
14182;DHT22;7171;50.936;6.764;2023-03-04T16:49:07;7.50;99.90
14182;DHT22;7171;50.936;6.764;2023-03-04T16:51:39;7.40;99.90
14182;DHT22;7171;50.936;6.764;2023-03-04T16:54:11;7.50;99.90
14182;DHT22;7171;50.936;6.764;2023-03-04T16:56:39;7.50;99.90
14182;DHT22;7171;50.936;6.764;2023-03-04T16:59:06;7.50;99.90
14182;DHT22;7171;50.936;6.764;2023-03-04T17:01:33;7.60;99.90
14182;DHT22;7171;50.936;6.764;2023-03-04T17:04:02;7.50;99.90
14182;DHT22;7171;50.936;6.764;2023-03-04T17:06:29;7.50;99.90
14182;DHT22;7171;50.936;6.764;2023-03-04T17:08:58;7.50;99.90
14182;DHT22;7171;50.936;6.764;2023-03-04T17:11:25;7.60;99.90
14182;DHT22;7171;50.936;6.764;2023-03-04T17:13:52;7.60;99.90
14182;DHT22;7171;50.936;6.764;2023-03-04T17:16:18;7.60;99.90
14182;DHT22;7171;50.936;6.764;2023-03-04T17:18:45;7.50;99.90
14182;DHT22;7171;50.936;6.764;2023-03-04T17:21:15;7.50;99.90
14182;DHT22;7171;50.936;6.764;2023-03-04T17:23:42;7.50;99.90
14182;DHT22;7171;50.936;6.764;2023-03-04T17:26:09;7.50;99.90
14182;DHT22;7171;50.936;6.764;2023-03-04T17:28:36;7.50;99.90
14182;DHT22;7171;50.936;6.764;2023-03-04T17:31:07;7.50;99.90
14182;DHT22;7171;50.936;6.764;2023-03-04T17:33:34;7.50;99.90
14182;DHT22;7171;50.936;6.764;2023-03-04T17:36:01;7.50;99.90
14182;DHT22;7171;50.936;6.764;2023-03-04T17:38:29;7.60;99.90
14182;DHT22;7171;50.936;6.764;2023-03-04T17:41:01;7.60;99.90
14182;DHT22;7171;50.936;6.764;2023-03-04T17:43:28;7.60;99.90
14182;DHT22;7171;50.936;6.764;2023-03-04T17:46:01;7.70;99.90
14182;DHT22;7171;50.936;6.764;2023-03-04T17:48:28;7.70;99.90
14182;DHT22;7171;50.936;6.764;2023-03-04T17:50:54;7.70;99.90
14182;DHT22;7171;50.936;6.764;2023-03-04T17:53:21;7.70;99.90
14182;DHT22;7171;50.936;6.764;2023-03-04T17:55:50;7.70;99.90
14182;DHT22;7171;50.936;6.764;2023-03-04T17:58:17;7.70;99.90
14182;DHT22;7171;50.936;6.764;2023-03-04T18:00:44;7.80;99.90
14182;DHT22;7171;50.936;6.764;2023-03-04T18:03:11;7.80;99.90
14182;DHT22;7171;50.936;6.764;2023-03-04T18:05:38;7.80;99.90
14182;DHT22;7171;50.936;6.764;2023-03-04T18:08:05;7.80;99.90
14182;DHT22;7171;50.936;6.764;2023-03-04T18:10:33;7.80;99.90
14182;DHT22;7171;50.936;6.764;2023-03-04T18:13:01;7.80;99.90
14182;DHT22;7171;50.936;6.764;2023-03-04T18:15:27;7.80;99.90
14182;DHT22;7171;50.936;6.764;2023-03-04T18:17:54;7.80;99.90
14182;DHT22;7171;50.936;6.764;2023-03-04T18:20:21;7.80;99.90
14182;DHT22;7171;50.936;6.764;2023-03-04T18:22:48;7.80;99.90
14182;DHT22;7171;50.936;6.764;2023-03-04T18:25:14;7.80;99.90
14182;DHT22;7171;50.936;6.764;2023-03-04T18:27:42;7.80;99.90
14182;DHT22;7171;50.936;6.764;2023-03-04T18:30:12;7.90;99.90
14182;DHT22;7171;50.936;6.764;2023-03-04T18:32:42;7.80;99.90
14182;DHT22;7171;50.936;6.764;2023-03-04T18:35:09;7.80;99.90
14182;DHT22;7171;50.936;6.764;2023-03-04T18:37:35;7.70;99.90
14182;DHT22;7171;50.936;6.764;2023-03-04T18:40:02;7.70;99.90
14182;DHT22;7171;50.936;6.764;2023-03-04T18:42:29;7.70;99.90
14182;DHT22;7171;50.936;6.764;2023-03-04T18:44:56;7.70;99.90
14182;DHT22;7171;50.936;6.764;2023-03-04T18:47:25;7.70;99.90